Flight Track Log - Related Links

Times and Time Zones

All times are in EDT time to prevent confusion due to time zone crossing. See the SWA3228 flight status page for this flight to view local times or setup timezone preferences in your user account.

Time Position Orientation Groundspeed Altitude Reporting Facility
EDT Latitude Longitude Course Direction KTS MPH feet Rate Location/Type
Wed 08:18:26 AM 28.4333 -81.3000 336° Northwest 153 176 700  Level Orlando TRACON
Wed 08:19:20 AM 28.4667 -81.3167 336° Northwest 206 237 3,000 3,000 Climbing Orlando TRACON
Wed 08:20:14 AM 28.5333 -81.3333 348° North 225 259 6,100 1,974 Climbing Orlando TRACON
Wed 08:21:52 AM 28.5444 -81.4275 278° West 247 284 8,000 1,414 Climbing Jacksonville Center
Wed 08:22:51 AM 28.5161 -81.5106 249° West 260 299 9,800 3,117 Climbing Jacksonville Center
Wed 08:24:51 AM 28.5036 -81.7186 266° West 319 367 17,300 3,533 Climbing Jacksonville Center
Wed 08:25:51 AM 28.5003 -81.8272 268° West 337 388 20,400 2,975 Climbing Jacksonville Center
Wed 08:26:52 AM 28.4928 -81.9478 266° West 366 421 23,300 2,600 Climbing Jacksonville Center
Wed 08:27:51 AM 28.4875 -82.0731 267° West 389 448 25,600 2,400 Climbing Jacksonville Center
Wed 08:28:52 AM 28.5111 -82.2003 282° West 411 473 28,100 2,529 Climbing Jacksonville Center
Wed 08:29:52 AM 28.5472 -82.3325 287° West 422 486 30,700 2,850 Climbing Jacksonville Center
Wed 08:30:52 AM 28.5833 -82.4600 288° West 428 493 33,800 2,672 Climbing Jacksonville Center
Wed 08:31:51 AM 28.6211 -82.5803 290° West 423 487 36,000 2,100 Climbing Jacksonville Center
Wed 08:32:52 AM 28.6964 -82.6725 313° West 407 468 38,000 992 Climbing Jacksonville Center
Wed 08:33:52 AM 28.7925 -82.7481 325° Northwest 403 464 38,000  Level Jacksonville Center
Wed 08:34:51 AM 28.8908 -82.8261 325° Northwest 415 478 38,000  Level Jacksonville Center
Wed 08:35:52 AM 28.9867 -82.8997 326° Northwest 421 484 38,000  Level Jacksonville Center
Wed 08:36:52 AM 29.0828 -82.9758 325° Northwest 421 484 38,000  Level Jacksonville Center
Wed 08:37:51 AM 29.1786 -83.0542 324° Northwest 421 484 38,000  Level Jacksonville Center
Wed 08:38:52 AM 29.2767 -83.1331 325° Northwest 426 490 38,000  Level Jacksonville Center
Wed 08:39:51 AM 29.3706 -83.2119 324° Northwest 431 496 38,000  Level Jacksonville Center
Wed 08:40:52 AM 29.4706 -83.2908 326° Northwest 431 496 38,000  Level Jacksonville Center
Wed 08:41:52 AM 29.5661 -83.3725 323° Northwest 431 496 38,000  Level Jacksonville Center
Wed 08:42:51 AM 29.6681 -83.4519 326° Northwest 431 496 38,000  Level Jacksonville Center
Wed 08:43:51 AM 29.7658 -83.5339 324° Northwest 431 496 38,000  Level Jacksonville Center
Wed 08:44:52 AM 29.8658 -83.6136 325° Northwest 431 496 38,000  Level Jacksonville Center
Wed 08:45:51 AM 29.9736 -83.7031 324° Northwest 431 496 38,000  Level Jacksonville Center
Wed 08:46:51 AM 30.0733 -83.7831 325° Northwest 431 496 38,000  Level Jacksonville Center
Wed 08:47:51 AM 30.1731 -83.8656 324° Northwest 431 496 38,000  Level Jacksonville Center
Wed 08:48:52 AM 30.2725 -83.9483 324° Northwest 431 496 38,000  Level Jacksonville Center
Wed 08:49:52 AM 30.3722 -84.0292 325° Northwest 431 496 38,000  Level Jacksonville Center
Wed 08:50:52 AM 30.4694 -84.1122 324° Northwest 431 496 38,000  Level Jacksonville Center
Wed 08:51:52 AM 30.5667 -84.1978 323° Northwest 436 502 38,000  Level Jacksonville Center
Wed 08:52:52 AM 30.6661 -84.2764 326° Northwest 431 496 38,000  Level Jacksonville Center
Wed 08:53:52 AM 30.7550 -84.3528 324° Northwest 431 496 38,000  Level Jacksonville Center
Wed 08:54:52 AM 30.8564 -84.4389 324° Northwest 431 496 38,000  Level Jacksonville Center
Wed 08:55:52 AM 30.9533 -84.5228 323° Northwest 436 502 38,000  Level Jacksonville Center
Wed 08:56:51 AM 31.0547 -84.6072 324° Northwest 436 502 38,000  Level Jacksonville Center
Wed 08:57:51 AM 31.1536 -84.6914 324° Northwest 436 502 38,000 -300 Level Jacksonville Center
Wed 08:58:51 AM 31.2547 -84.7783 324° Northwest 441 507 37,400 -850 Descending Jacksonville Center
Wed 08:59:51 AM 31.3539 -84.8583 325° Northwest 441 507 36,300 -1,057 Descending Jacksonville Center
Wed 09:02:04 AM 31.5714 -85.0456 324° Northwest 446 513 34,000 -715 Descending Atlanta Center
Wed 09:03:04 AM 31.6647 -85.1294 323° Northwest 434 499 34,000 -250 Level Atlanta Center
Wed 09:04:04 AM 31.7722 -85.2164 325° Northwest 429 494 33,500 -750 Descending Atlanta Center
Wed 09:05:04 AM 31.8697 -85.3008 324° Northwest 429 494 32,500 -1,000 Descending Atlanta Center
Wed 09:06:04 AM 31.9667 -85.3853 324° Northwest 429 494 31,500 -950 Descending Atlanta Center
Wed 09:07:04 AM 32.0661 -85.4703 324° Northwest 429 494 30,600 -950 Descending Atlanta Center
Wed 09:08:04 AM 32.1672 -85.5553 325° Northwest 434 499 29,600 -1,000 Descending Atlanta Center
Wed 09:09:04 AM 32.2642 -85.6428 323° Northwest 434 499 28,600 -800 Descending Atlanta Center
Wed 09:10:04 AM 32.3614 -85.7258 324° Northwest 434 499 28,000 -300 Descending Atlanta Center
Wed 09:11:04 AM 32.4436 -85.8061 321° Northwest 434 499 28,000 -350 Level Atlanta Center
Wed 09:12:04 AM 32.5531 -85.8944 326° Northwest 429 494 27,300 -1,050 Descending Atlanta Center
Wed 09:13:04 AM 32.6456 -85.9778 323° Northwest 429 494 25,900 -1,550 Descending Atlanta Center
Wed 09:14:04 AM 32.7178 -86.0411 324° Northwest 423 487 24,200 -2,050 Descending Atlanta Center
Wed 09:15:04 AM 32.8267 -86.1400 323° Northwest 410 472 21,800 -2,500 Descending Atlanta Center
Wed 09:16:04 AM 32.9150 -86.2189 323° Northwest 410 472 19,200 -2,450 Descending Atlanta Center
Wed 09:17:04 AM 33.0014 -86.2953 323° Northwest 403 464 16,900 -2,471 Descending Atlanta Center
Wed 09:17:46 AM 33.0567 -86.3536 319° Northwest 379 436 15,000 -2,400 Descending Atlanta Center
Wed 09:18:04 AM 33.0856 -86.3719 332° Northwest 398 458 14,500 -2,262 Descending Atlanta Center
Wed 09:18:47 AM 33.1408 -86.4278 320° Northwest 368 423 12,700 -2,400 Descending Atlanta Center
Wed 09:19:04 AM 33.1656 -86.4458 329° Northwest 379 436 12,100 -1,964 Descending Atlanta Center
Wed 09:19:42 AM 33.2125 -86.4894 322° Northwest 354 407 10,900 -1,500 Descending Atlanta Center
Wed 09:20:04 AM 33.2414 -86.5125 326° Northwest 362 417 10,600 -1,098 Descending Atlanta Center
Wed 09:21:04 AM 33.3092 -86.5717 324° Northwest 331 381 9,400 -1,314 Descending Atlanta Center
Wed 09:21:49 AM 33.3539 -86.6178 319° Northwest 283 326 8,300 -1,700 Descending Atlanta Center
Wed 09:22:04 AM 33.3747 -86.6283 337° Northwest 304 350 7,700 -2,000 Descending Atlanta Center
Wed 09:22:49 AM 33.4236 -86.6797 319° Northwest 287 330 6,300 -1,700 Descending Atlanta Center
Wed 09:23:04 AM 33.4400 -86.6900 332° Northwest 292 336 6,000 -393 Descending Atlanta Center
Wed 09:23:50 AM 33.4531 -86.7650 282° West 286 329 5,900 -531 Descending Atlanta Center
Wed 09:24:57 AM 33.4531 -86.8647 270° West 275 316 5,000 -645 Descending Atlanta Center
Wed 09:25:51 AM 33.4119 -86.9206 229° Southwest 225 259 4,600 -626 Descending Atlanta Center
Wed 09:26:52 AM 33.4211 -86.9806 280° West 227 261 3,800 -836 Descending Atlanta Center
Wed 09:27:53 AM 33.4531 -86.9444 43° Northeast 177 204 2,900 -595 Descending Atlanta Center
Wed 09:28:53 AM 33.4836 -86.8981 52° Northeast 165 190 2,600 -298 Descending Atlanta Center
Wed 09:29:54 AM 33.5094 -86.8542 55° Northeast 154 177 2,300 -496 Descending Atlanta Center
Wed 09:30:54 AM 33.5269 -86.8197 59° Northeast 124 143 1,600 -678 Descending Atlanta Center
Wed 09:31:49 AM 33.5444 -86.7881 56° Northeast 118 136 1,000 -655 Descending Atlanta Center
Wed 09:33:00 AM 33.5639 -86.7523 320° Northwest  Level Estimated
Wed 09:40:00 AM 33.5639 -86.7523 140° Southeast  Level Estimated

Login

Don't have an account? Register now (free) for customized features, flight alerts, and more!